sensor_id;sensor_type;location;lat;lon;timestamp;temperature;humidity
36552;DHT22;22559;54.176;12.102;2022-10-30T00:00:16;13.80;99.90
36552;DHT22;22559;54.176;12.102;2022-10-30T00:02:41;13.80;99.90
36552;DHT22;22559;54.176;12.102;2022-10-30T00:05:08;13.80;99.90
36552;DHT22;22559;54.176;12.102;2022-10-30T00:07:34;13.80;99.90
36552;DHT22;22559;54.176;12.102;2022-10-30T00:09:59;13.80;99.90
36552;DHT22;22559;54.176;12.102;2022-10-30T00:12:25;13.80;99.90
36552;DHT22;22559;54.176;12.102;2022-10-30T00:14:50;13.80;99.90
36552;DHT22;22559;54.176;12.102;2022-10-30T00:17:16;13.70;99.90
36552;DHT22;22559;54.176;12.102;2022-10-30T00:19:42;13.80;99.90
36552;DHT22;22559;54.176;12.102;2022-10-30T00:22:08;13.70;99.90
36552;DHT22;22559;54.176;12.102;2022-10-30T00:24:34;13.70;99.90
36552;DHT22;22559;54.176;12.102;2022-10-30T00:26:59;13.70;99.90
36552;DHT22;22559;54.176;12.102;2022-10-30T00:29:25;13.60;99.90
36552;DHT22;22559;54.176;12.102;2022-10-30T00:31:51;13.60;99.90
36552;DHT22;22559;54.176;12.102;2022-10-30T00:34:17;13.60;99.90
36552;DHT22;22559;54.176;12.102;2022-10-30T00:36:42;13.60;99.90
36552;DHT22;22559;54.176;12.102;2022-10-30T00:39:08;13.60;99.90
36552;DHT22;22559;54.176;12.102;2022-10-30T00:41:34;13.60;99.90
36552;DHT22;22559;54.176;12.102;2022-10-30T00:44:00;13.60;99.90
36552;DHT22;22559;54.176;12.102;2022-10-30T00:46:30;13.60;99.90
36552;DHT22;22559;54.176;12.102;2022-10-30T00:49:14;13.50;99.90
36552;DHT22;22559;54.176;12.102;2022-10-30T00:51:45;13.60;99.90
36552;DHT22;22559;54.176;12.102;2022-10-30T00:54:14;13.60;99.90
36552;DHT22;22559;54.176;12.102;2022-10-30T00:56:41;13.50;99.90
36552;DHT22;22559;54.176;12.102;2022-10-30T00:59:10;13.50;99.90
36552;DHT22;22559;54.176;12.102;2022-10-30T01:01:40;13.50;99.90
36552;DHT22;22559;54.176;12.102;2022-10-30T01:04:06;13.50;99.90
36552;DHT22;22559;54.176;12.102;2022-10-30T01:06:35;13.40;99.90
36552;DHT22;22559;54.176;12.102;2022-10-30T01:09:03;13.40;99.90
36552;DHT22;22559;54.176;12.102;2022-10-30T01:11:29;13.40;99.90
36552;DHT22;22559;54.176;12.102;2022-10-30T01:14:00;13.30;99.90
36552;DHT22;22559;54.176;12.102;2022-10-30T01:17:32;13.30;99.90
36552;DHT22;22559;54.176;12.102;2022-10-30T01:19:33;13.30;99.90
36552;DHT22;22559;54.176;12.102;2022-10-30T01:24:48;13.20;99.90
36552;DHT22;22559;54.176;12.102;2022-10-30T01:39:16;13.20;99.90
36552;DHT22;22559;54.176;12.102;2022-10-30T01:41:44;13.20;99.90
36552;DHT22;22559;54.176;12.102;2022-10-30T01:44:30;13.20;99.90
36552;DHT22;22559;54.176;12.102;2022-10-30T01:47:29;13.20;99.90
36552;DHT22;22559;54.176;12.102;2022-10-30T01:53:21;13.20;99.90
36552;DHT22;22559;54.176;12.102;2022-10-30T01:55:56;13.10;99.90
36552;DHT22;22559;54.176;12.102;2022-10-30T02:01:03;13.10;99.90
36552;DHT22;22559;54.176;12.102;2022-10-30T02:03:29;13.10;99.90
36552;DHT22;22559;54.176;12.102;2022-10-30T02:05:55;13.00;99.90
36552;DHT22;22559;54.176;12.102;2022-10-30T02:08:21;13.00;99.90
36552;DHT22;22559;54.176;12.102;2022-10-30T02:10:48;12.90;99.90
36552;DHT22;22559;54.176;12.102;2022-10-30T02:13:15;12.90;99.90
36552;DHT22;22559;54.176;12.102;2022-10-30T02:15:41;12.90;99.90
36552;DHT22;22559;54.176;12.102;2022-10-30T02:18:08;12.80;99.90
36552;DHT22;22559;54.176;12.102;2022-10-30T02:20:34;12.80;99.90
36552;DHT22;22559;54.176;12.102;2022-10-30T02:23:00;12.80;99.90
36552;DHT22;22559;54.176;12.102;2022-10-30T02:25:26;12.80;99.90
36552;DHT22;22559;54.176;12.102;2022-10-30T02:27:51;12.80;99.90
36552;DHT22;22559;54.176;12.102;2022-10-30T02:30:17;12.80;99.90
36552;DHT22;22559;54.176;12.102;2022-10-30T02:32:42;12.70;99.90
36552;DHT22;22559;54.176;12.102;2022-10-30T02:35:08;12.80;99.90
36552;DHT22;22559;54.176;12.102;2022-10-30T02:37:34;12.70;99.90
36552;DHT22;22559;54.176;12.102;2022-10-30T02:40:01;12.80;99.90
36552;DHT22;22559;54.176;12.102;2022-10-30T02:42:27;12.80;99.90
36552;DHT22;22559;54.176;12.102;2022-10-30T02:44:53;12.80;99.90
36552;DHT22;22559;54.176;12.102;2022-10-30T02:47:18;12.80;99.90
36552;DHT22;22559;54.176;12.102;2022-10-30T02:49:44;12.80;99.90
36552;DHT22;22559;54.176;12.102;2022-10-30T02:52:10;12.80;99.90
36552;DHT22;22559;54.176;12.102;2022-10-30T02:54:35;12.80;99.90
36552;DHT22;22559;54.176;12.102;2022-10-30T02:57:01;12.80;99.90
36552;DHT22;22559;54.176;12.102;2022-10-30T02:59:27;12.70;99.90
36552;DHT22;22559;54.176;12.102;2022-10-30T03:01:53;12.80;99.90
36552;DHT22;22559;54.176;12.102;2022-10-30T03:04:19;12.80;99.90
36552;DHT22;22559;54.176;12.102;2022-10-30T03:06:44;12.80;99.90
36552;DHT22;22559;54.176;12.102;2022-10-30T03:09:10;12.80;99.90
36552;DHT22;22559;54.176;12.102;2022-10-30T03:11:35;12.80;99.90
36552;DHT22;22559;54.176;12.102;2022-10-30T03:14:01;12.80;99.90
36552;DHT22;22559;54.176;12.102;2022-10-30T03:16:27;12.90;99.90
36552;DHT22;22559;54.176;12.102;2022-10-30T03:18:57;12.90;99.90
36552;DHT22;22559;54.176;12.102;2022-10-30T03:21:25;13.00;99.90
36552;DHT22;22559;54.176;12.102;2022-10-30T03:23:51;13.00;99.90
36552;DHT22;22559;54.176;12.102;2022-10-30T03:26:17;13.10;99.90
36552;DHT22;22559;54.176;12.102;2022-10-30T03:28:43;13.20;99.90
36552;DHT22;22559;54.176;12.102;2022-10-30T03:31:12;13.20;99.90
36552;DHT22;22559;54.176;12.102;2022-10-30T03:33:38;13.20;99.90
36552;DHT22;22559;54.176;12.102;2022-10-30T03:36:06;13.20;99.90
36552;DHT22;22559;54.176;12.102;2022-10-30T03:38:33;13.20;99.90
36552;DHT22;22559;54.176;12.102;2022-10-30T03:40:58;13.30;99.90
36552;DHT22;22559;54.176;12.102;2022-10-30T03:43:25;13.30;99.90
36552;DHT22;22559;54.176;12.102;2022-10-30T03:45:52;13.20;99.90
36552;DHT22;22559;54.176;12.102;2022-10-30T03:48:20;13.20;99.90
36552;DHT22;22559;54.176;12.102;2022-10-30T03:50:46;13.20;99.90
36552;DHT22;22559;54.176;12.102;2022-10-30T03:53:12;13.20;99.90
36552;DHT22;22559;54.176;12.102;2022-10-30T03:55:39;13.20;99.90
36552;DHT22;22559;54.176;12.102;2022-10-30T03:58:04;13.30;99.90
36552;DHT22;22559;54.176;12.102;2022-10-30T04:00:30;13.20;99.90
36552;DHT22;22559;54.176;12.102;2022-10-30T04:02:56;13.20;99.90
36552;DHT22;22559;54.176;12.102;2022-10-30T04:05:23;13.30;99.90
36552;DHT22;22559;54.176;12.102;2022-10-30T04:07:57;13.20;99.90
36552;DHT22;22559;54.176;12.102;2022-10-30T04:10:23;13.20;99.90
36552;DHT22;22559;54.176;12.102;2022-10-30T04:12:49;13.30;99.90
36552;DHT22;22559;54.176;12.102;2022-10-30T04:15:15;13.30;99.90
36552;DHT22;22559;54.176;12.102;2022-10-30T04:17:47;13.40;99.90
36552;DHT22;22559;54.176;12.102;2022-10-30T04:20:13;13.50;99.90
36552;DHT22;22559;54.176;12.102;2022-10-30T04:22:39;13.50;99.90
36552;DHT22;22559;54.176;12.102;2022-10-30T04:25:05;13.60;99.90
36552;DHT22;22559;54.176;12.102;2022-10-30T04:27:30;13.60;99.90
36552;DHT22;22559;54.176;12.102;2022-10-30T04:29:56;13.50;99.90
36552;DHT22;22559;54.176;12.102;2022-10-30T04:32:21;13.50;99.90
36552;DHT22;22559;54.176;12.102;2022-10-30T04:34:47;13.50;99.90
36552;DHT22;22559;54.176;12.102;2022-10-30T04:37:14;13.50;99.90
36552;DHT22;22559;54.176;12.102;2022-10-30T04:39:39;13.50;99.90
36552;DHT22;22559;54.176;12.102;2022-10-30T04:42:05;13.50;99.90
36552;DHT22;22559;54.176;12.102;2022-10-30T04:44:30;13.50;99.90
36552;DHT22;22559;54.176;12.102;2022-10-30T04:46:56;13.60;99.90
36552;DHT22;22559;54.176;12.102;2022-10-30T04:49:21;13.60;99.90
36552;DHT22;22559;54.176;12.102;2022-10-30T04:51:47;13.60;99.90
36552;DHT22;22559;54.176;12.102;2022-10-30T04:54:12;13.60;99.90
36552;DHT22;22559;54.176;12.102;2022-10-30T04:56:38;13.70;99.90
36552;DHT22;22559;54.176;12.102;2022-10-30T04:59:04;13.70;99.90
36552;DHT22;22559;54.176;12.102;2022-10-30T05:01:29;13.70;99.90
36552;DHT22;22559;54.176;12.102;2022-10-30T05:03:55;13.70;99.90
36552;DHT22;22559;54.176;12.102;2022-10-30T05:06:27;13.80;99.90
36552;DHT22;22559;54.176;12.102;2022-10-30T05:08:57;13.70;99.90
36552;DHT22;22559;54.176;12.102;2022-10-30T05:11:22;13.80;99.90
36552;DHT22;22559;54.176;12.102;2022-10-30T05:13:48;13.80;99.90
36552;DHT22;22559;54.176;12.102;2022-10-30T05:16:13;13.90;99.90
36552;DHT22;22559;54.176;12.102;2022-10-30T05:18:39;13.90;99.90
36552;DHT22;22559;54.176;12.102;2022-10-30T05:21:05;13.90;99.90
36552;DHT22;22559;54.176;12.102;2022-10-30T05:23:30;13.90;99.90
36552;DHT22;22559;54.176;12.102;2022-10-30T05:25:58;13.80;99.90
36552;DHT22;22559;54.176;12.102;2022-10-30T05:28:24;13.80;99.90
36552;DHT22;22559;54.176;12.102;2022-10-30T05:30:52;13.80;99.90
36552;DHT22;22559;54.176;12.102;2022-10-30T05:33:18;13.80;99.90
36552;DHT22;22559;54.176;12.102;2022-10-30T05:35:43;13.70;99.90
36552;DHT22;22559;54.176;12.102;2022-10-30T05:38:09;13.70;99.90
36552;DHT22;22559;54.176;12.102;2022-10-30T05:40:35;13.70;99.90
36552;DHT22;22559;54.176;12.102;2022-10-30T05:43:01;13.70;99.90
36552;DHT22;22559;54.176;12.102;2022-10-30T05:45:26;13.70;99.90
36552;DHT22;22559;54.176;12.102;2022-10-30T05:47:57;13.70;99.90
36552;DHT22;22559;54.176;12.102;2022-10-30T05:50:26;13.70;99.90
36552;DHT22;22559;54.176;12.102;2022-10-30T05:52:56;13.70;99.90
36552;DHT22;22559;54.176;12.102;2022-10-30T05:55:22;13.70;99.90
36552;DHT22;22559;54.176;12.102;2022-10-30T05:57:47;13.60;99.90
36552;DHT22;22559;54.176;12.102;2022-10-30T06:00:14;13.70;99.90
36552;DHT22;22559;54.176;12.102;2022-10-30T06:02:40;13.60;99.90
36552;DHT22;22559;54.176;12.102;2022-10-30T06:05:06;13.70;99.90
36552;DHT22;22559;54.176;12.102;2022-10-30T06:07:34;13.70;99.90
36552;DHT22;22559;54.176;12.102;2022-10-30T06:10:00;13.70;99.90
36552;DHT22;22559;54.176;12.102;2022-10-30T06:12:31;13.70;99.90
36552;DHT22;22559;54.176;12.102;2022-10-30T06:14:57;13.80;99.90
36552;DHT22;22559;54.176;12.102;2022-10-30T06:17:23;13.80;99.90
36552;DHT22;22559;54.176;12.102;2022-10-30T06:19:48;13.80;99.90
36552;DHT22;22559;54.176;12.102;2022-10-30T06:22:14;13.80;99.90
36552;DHT22;22559;54.176;12.102;2022-10-30T06:24:39;13.70;99.90
36552;DHT22;22559;54.176;12.102;2022-10-30T06:27:05;13.70;99.90
36552;DHT22;22559;54.176;12.102;2022-10-30T06:29:30;13.70;99.90
36552;DHT22;22559;54.176;12.102;2022-10-30T06:31:56;13.70;99.90
36552;DHT22;22559;54.176;12.102;2022-10-30T06:34:22;13.70;99.90
36552;DHT22;22559;54.176;12.102;2022-10-30T06:36:47;13.70;99.90
36552;DHT22;22559;54.176;12.102;2022-10-30T06:39:13;13.70;99.90
36552;DHT22;22559;54.176;12.102;2022-10-30T06:41:38;13.60;99.90
36552;DHT22;22559;54.176;12.102;2022-10-30T06:44:04;13.60;99.90
36552;DHT22;22559;54.176;12.102;2022-10-30T06:46:29;13.70;99.90
36552;DHT22;22559;54.176;12.102;2022-10-30T06:48:55;13.60;99.90
36552;DHT22;22559;54.176;12.102;2022-10-30T06:51:24;13.60;99.90
36552;DHT22;22559;54.176;12.102;2022-10-30T06:53:50;13.60;99.90
36552;DHT22;22559;54.176;12.102;2022-10-30T06:56:15;13.60;99.90
36552;DHT22;22559;54.176;12.102;2022-10-30T06:58:44;13.60;99.90
36552;DHT22;22559;54.176;12.102;2022-10-30T07:01:10;13.60;99.90
36552;DHT22;22559;54.176;12.102;2022-10-30T07:03:35;13.60;99.90
36552;DHT22;22559;54.176;12.102;2022-10-30T07:06:01;13.60;99.90
36552;DHT22;22559;54.176;12.102;2022-10-30T07:08:27;13.60;99.90
36552;DHT22;22559;54.176;12.102;2022-10-30T07:10:55;13.60;99.90
36552;DHT22;22559;54.176;12.102;2022-10-30T07:13:21;13.60;99.90
36552;DHT22;22559;54.176;12.102;2022-10-30T07:15:47;13.60;99.90
36552;DHT22;22559;54.176;12.102;2022-10-30T07:18:13;13.60;99.90
36552;DHT22;22559;54.176;12.102;2022-10-30T07:20:38;13.70;99.90
36552;DHT22;22559;54.176;12.102;2022-10-30T07:23:04;13.70;99.90
36552;DHT22;22559;54.176;12.102;2022-10-30T07:25:29;13.80;99.90
36552;DHT22;22559;54.176;12.102;2022-10-30T07:27:56;13.80;99.90
36552;DHT22;22559;54.176;12.102;2022-10-30T07:30:24;13.90;99.90
36552;DHT22;22559;54.176;12.102;2022-10-30T07:33:00;14.00;99.90
36552;DHT22;22559;54.176;12.102;2022-10-30T07:35:27;14.10;99.90
36552;DHT22;22559;54.176;12.102;2022-10-30T07:37:53;14.20;99.90
36552;DHT22;22559;54.176;12.102;2022-10-30T07:40:19;14.30;99.90
36552;DHT22;22559;54.176;12.102;2022-10-30T07:42:45;14.30;99.90
36552;DHT22;22559;54.176;12.102;2022-10-30T07:45:11;14.30;99.90
36552;DHT22;22559;54.176;12.102;2022-10-30T07:47:42;14.40;99.90
36552;DHT22;22559;54.176;12.102;2022-10-30T07:50:09;14.40;99.90
36552;DHT22;22559;54.176;12.102;2022-10-30T07:52:35;14.40;99.90
36552;DHT22;22559;54.176;12.102;2022-10-30T07:55:00;14.40;99.90
36552;DHT22;22559;54.176;12.102;2022-10-30T07:57:26;14.40;99.90
36552;DHT22;22559;54.176;12.102;2022-10-30T07:59:52;14.40;99.90
36552;DHT22;22559;54.176;12.102;2022-10-30T08:02:20;14.40;99.90
36552;DHT22;22559;54.176;12.102;2022-10-30T08:04:49;14.60;99.90
36552;DHT22;22559;54.176;12.102;2022-10-30T08:07:15;14.80;99.90
36552;DHT22;22559;54.176;12.102;2022-10-30T08:09:40;14.90;99.90
36552;DHT22;22559;54.176;12.102;2022-10-30T08:12:06;15.10;99.90
36552;DHT22;22559;54.176;12.102;2022-10-30T08:14:32;15.30;99.90
36552;DHT22;22559;54.176;12.102;2022-10-30T08:16:59;15.50;99.90
36552;DHT22;22559;54.176;12.102;2022-10-30T08:19:24;15.60;99.90
36552;DHT22;22559;54.176;12.102;2022-10-30T08:21:50;15.80;99.90
36552;DHT22;22559;54.176;12.102;2022-10-30T08:24:16;16.10;99.90
36552;DHT22;22559;54.176;12.102;2022-10-30T08:26:41;16.40;99.90
36552;DHT22;22559;54.176;12.102;2022-10-30T08:29:07;16.80;99.90
36552;DHT22;22559;54.176;12.102;2022-10-30T08:31:33;17.20;99.90
36552;DHT22;22559;54.176;12.102;2022-10-30T08:33:58;17.50;99.90
36552;DHT22;22559;54.176;12.102;2022-10-30T08:36:24;17.70;99.90
36552;DHT22;22559;54.176;12.102;2022-10-30T08:38:50;17.90;99.90
36552;DHT22;22559;54.176;12.102;2022-10-30T08:41:15;18.20;99.90
36552;DHT22;22559;54.176;12.102;2022-10-30T08:43:41;18.50;99.90
36552;DHT22;22559;54.176;12.102;2022-10-30T08:46:07;18.80;99.90
36552;DHT22;22559;54.176;12.102;2022-10-30T08:48:32;19.00;99.90
36552;DHT22;22559;54.176;12.102;2022-10-30T08:50:58;19.00;99.90
36552;DHT22;22559;54.176;12.102;2022-10-30T08:53:26;19.30;99.90
36552;DHT22;22559;54.176;12.102;2022-10-30T08:55:52;19.30;99.90
36552;DHT22;22559;54.176;12.102;2022-10-30T08:58:17;19.30;99.90
36552;DHT22;22559;54.176;12.102;2022-10-30T09:00:43;19.20;99.90
36552;DHT22;22559;54.176;12.102;2022-10-30T09:03:08;19.10;99.90
36552;DHT22;22559;54.176;12.102;2022-10-30T09:05:36;19.20;99.90
36552;DHT22;22559;54.176;12.102;2022-10-30T09:08:01;19.60;99.90
36552;DHT22;22559;54.176;12.102;2022-10-30T09:10:27;19.90;99.90
36552;DHT22;22559;54.176;12.102;2022-10-30T09:12:56;20.20;99.90
36552;DHT22;22559;54.176;12.102;2022-10-30T09:15:24;20.30;99.90
36552;DHT22;22559;54.176;12.102;2022-10-30T09:18:01;20.60;99.90
36552;DHT22;22559;54.176;12.102;2022-10-30T09:20:28;20.80;99.90
36552;DHT22;22559;54.176;12.102;2022-10-30T09:22:54;20.60;99.90
36552;DHT22;22559;54.176;12.102;2022-10-30T09:25:19;20.30;99.90
36552;DHT22;22559;54.176;12.102;2022-10-30T09:27:45;20.00;99.90
36552;DHT22;22559;54.176;12.102;2022-10-30T09:30:12;20.00;99.90
36552;DHT22;22559;54.176;12.102;2022-10-30T09:32:38;20.40;99.90
36552;DHT22;22559;54.176;12.102;2022-10-30T09:35:05;20.70;99.90
36552;DHT22;22559;54.176;12.102;2022-10-30T09:37:37;20.70;99.90
36552;DHT22;22559;54.176;12.102;2022-10-30T09:40:04;20.40;99.90
36552;DHT22;22559;54.176;12.102;2022-10-30T09:47:33;20.60;99.90
36552;DHT22;22559;54.176;12.102;2022-10-30T09:50:15;21.00;99.90
36552;DHT22;22559;54.176;12.102;2022-10-30T09:53:15;21.30;99.90
36552;DHT22;22559;54.176;12.102;2022-10-30T10:06:03;20.20;99.90
36552;DHT22;22559;54.176;12.102;2022-10-30T10:08:49;19.60;99.90
36552;DHT22;22559;54.176;12.102;2022-10-30T10:11:22;19.10;99.90
36552;DHT22;22559;54.176;12.102;2022-10-30T10:16:30;18.60;99.90
36552;DHT22;22559;54.176;12.102;2022-10-30T10:19:21;18.70;99.90
36552;DHT22;22559;54.176;12.102;2022-10-30T10:21:55;18.90;99.90
36552;DHT22;22559;54.176;12.102;2022-10-30T10:24:56;18.90;99.90
36552;DHT22;22559;54.176;12.102;2022-10-30T10:30:19;19.70;99.90
36552;DHT22;22559;54.176;12.102;2022-10-30T10:43:29;21.80;99.90
36552;DHT22;22559;54.176;12.102;2022-10-30T10:46:29;21.80;99.90
36552;DHT22;22559;54.176;12.102;2022-10-30T10:52:02;21.60;99.90
36552;DHT22;22559;54.176;12.102;2022-10-30T10:54:40;21.20;99.90
36552;DHT22;22559;54.176;12.102;2022-10-30T10:57:14;20.90;99.90
36552;DHT22;22559;54.176;12.102;2022-10-30T10:59:48;20.60;99.90
36552;DHT22;22559;54.176;12.102;2022-10-30T11:02:39;20.50;99.90
36552;DHT22;22559;54.176;12.102;2022-10-30T11:05:25;20.30;99.90
36552;DHT22;22559;54.176;12.102;2022-10-30T11:07:58;20.40;99.90
36552;DHT22;22559;54.176;12.102;2022-10-30T11:10:25;20.40;99.90
36552;DHT22;22559;54.176;12.102;2022-10-30T11:12:51;20.60;99.90
36552;DHT22;22559;54.176;12.102;2022-10-30T11:17:49;20.60;99.90
36552;DHT22;22559;54.176;12.102;2022-10-30T11:20:27;20.70;99.90
36552;DHT22;22559;54.176;12.102;2022-10-30T11:22:54;20.90;99.90
36552;DHT22;22559;54.176;12.102;2022-10-30T11:25:21;21.20;99.90
36552;DHT22;22559;54.176;12.102;2022-10-30T11:27:59;21.50;99.90
36552;DHT22;22559;54.176;12.102;2022-10-30T11:30:26;21.80;99.90
36552;DHT22;22559;54.176;12.102;2022-10-30T11:32:53;22.40;99.90
36552;DHT22;22559;54.176;12.102;2022-10-30T11:35:20;22.80;99.90
36552;DHT22;22559;54.176;12.102;2022-10-30T11:37:50;23.20;99.90
36552;DHT22;22559;54.176;12.102;2022-10-30T11:40:20;23.20;99.90
36552;DHT22;22559;54.176;12.102;2022-10-30T11:42:56;23.30;99.90
36552;DHT22;22559;54.176;12.102;2022-10-30T11:45:28;23.10;99.90
36552;DHT22;22559;54.176;12.102;2022-10-30T11:47:56;22.90;99.90
36552;DHT22;22559;54.176;12.102;2022-10-30T11:50:28;22.90;99.90
36552;DHT22;22559;54.176;12.102;2022-10-30T11:53:15;23.10;99.90
36552;DHT22;22559;54.176;12.102;2022-10-30T11:55:47;23.00;99.90
36552;DHT22;22559;54.176;12.102;2022-10-30T11:58:41;22.80;99.90
36552;DHT22;22559;54.176;12.102;2022-10-30T12:01:33;22.60;99.90
36552;DHT22;22559;54.176;12.102;2022-10-30T12:04:22;22.10;99.90
36552;DHT22;22559;54.176;12.102;2022-10-30T12:07:33;21.60;99.90
36552;DHT22;22559;54.176;12.102;2022-10-30T12:09:59;21.50;99.90
36552;DHT22;22559;54.176;12.102;2022-10-30T12:12:36;21.30;99.90
36552;DHT22;22559;54.176;12.102;2022-10-30T12:15:19;21.00;99.90
36552;DHT22;22559;54.176;12.102;2022-10-30T12:17:59;20.90;99.90
36552;DHT22;22559;54.176;12.102;2022-10-30T12:20:26;20.60;99.90
36552;DHT22;22559;54.176;12.102;2022-10-30T12:22:52;20.40;99.90
36552;DHT22;22559;54.176;12.102;2022-10-30T12:25:38;20.20;99.90
36552;DHT22;22559;54.176;12.102;2022-10-30T12:28:13;20.10;99.90
36552;DHT22;22559;54.176;12.102;2022-10-30T12:33:57;20.30;99.90
36552;DHT22;22559;54.176;12.102;2022-10-30T12:36:34;21.00;99.90
36552;DHT22;22559;54.176;12.102;2022-10-30T12:41:50;22.80;99.90
36552;DHT22;22559;54.176;12.102;2022-10-30T12:44:38;23.30;99.90
36552;DHT22;22559;54.176;12.102;2022-10-30T12:49:44;24.70;99.90
36552;DHT22;22559;54.176;12.102;2022-10-30T12:55:03;25.10;99.90
36552;DHT22;22559;54.176;12.102;2022-10-30T12:57:36;25.60;99.90
36552;DHT22;22559;54.176;12.102;2022-10-30T13:00:14;25.30;99.90
36552;DHT22;22559;54.176;12.102;2022-10-30T13:03:12;25.30;99.90
36552;DHT22;22559;54.176;12.102;2022-10-30T13:05:53;25.70;99.90
36552;DHT22;22559;54.176;12.102;2022-10-30T13:13:36;26.10;99.90
36552;DHT22;22559;54.176;12.102;2022-10-30T13:16:10;26.00;99.90
36552;DHT22;22559;54.176;12.102;2022-10-30T13:18:37;25.60;99.90
36552;DHT22;22559;54.176;12.102;2022-10-30T13:23:54;25.00;99.90
36552;DHT22;22559;54.176;12.102;2022-10-30T13:26:41;25.10;99.90
36552;DHT22;22559;54.176;12.102;2022-10-30T13:29:36;24.70;99.90
36552;DHT22;22559;54.176;12.102;2022-10-30T13:37:35;24.10;99.90
36552;DHT22;22559;54.176;12.102;2022-10-30T13:43:15;23.60;99.90
36552;DHT22;22559;54.176;12.102;2022-10-30T13:51:26;23.30;99.90
36552;DHT22;22559;54.176;12.102;2022-10-30T13:54:03;23.00;99.90
36552;DHT22;22559;54.176;12.102;2022-10-30T13:56:30;23.00;99.90
36552;DHT22;22559;54.176;12.102;2022-10-30T14:02:15;21.90;99.90
36552;DHT22;22559;54.176;12.102;2022-10-30T14:05:14;22.00;99.90
36552;DHT22;22559;54.176;12.102;2022-10-30T14:10:51;22.20;99.90
36552;DHT22;22559;54.176;12.102;2022-10-30T14:15:55;21.70;99.90
36552;DHT22;22559;54.176;12.102;2022-10-30T14:18:27;21.70;99.90
36552;DHT22;22559;54.176;12.102;2022-10-30T14:20:55;21.60;99.90
36552;DHT22;22559;54.176;12.102;2022-10-30T14:23:35;21.30;99.90
36552;DHT22;22559;54.176;12.102;2022-10-30T14:28:31;21.00;99.90
36552;DHT22;22559;54.176;12.102;2022-10-30T14:38:38;20.60;99.90
36552;DHT22;22559;54.176;12.102;2022-10-30T14:43:58;20.20;99.90
36552;DHT22;22559;54.176;12.102;2022-10-30T14:55:27;20.00;99.90
36552;DHT22;22559;54.176;12.102;2022-10-30T15:00:43;19.70;99.90
36552;DHT22;22559;54.176;12.102;2022-10-30T15:05:51;19.40;99.90
36552;DHT22;22559;54.176;12.102;2022-10-30T15:08:39;19.30;99.90
36552;DHT22;22559;54.176;12.102;2022-10-30T15:11:21;19.20;99.90
36552;DHT22;22559;54.176;12.102;2022-10-30T15:13:52;19.10;99.90
36552;DHT22;22559;54.176;12.102;2022-10-30T15:16:20;19.00;99.90
36552;DHT22;22559;54.176;12.102;2022-10-30T15:18:54;18.90;99.90
36552;DHT22;22559;54.176;12.102;2022-10-30T15:21:22;18.70;99.90
36552;DHT22;22559;54.176;12.102;2022-10-30T15:23:52;18.60;99.90
36552;DHT22;22559;54.176;12.102;2022-10-30T15:26:24;18.40;99.90
36552;DHT22;22559;54.176;12.102;2022-10-30T15:28:51;18.30;99.90
36552;DHT22;22559;54.176;12.102;2022-10-30T15:31:22;18.20;99.90
36552;DHT22;22559;54.176;12.102;2022-10-30T15:33:48;18.10;99.90
36552;DHT22;22559;54.176;12.102;2022-10-30T15:36:41;18.10;99.90
36552;DHT22;22559;54.176;12.102;2022-10-30T15:39:13;18.10;99.90
36552;DHT22;22559;54.176;12.102;2022-10-30T15:42:00;17.90;99.90
36552;DHT22;22559;54.176;12.102;2022-10-30T15:44:28;17.90;99.90
36552;DHT22;22559;54.176;12.102;2022-10-30T15:46:56;17.90;99.90
36552;DHT22;22559;54.176;12.102;2022-10-30T15:49:33;17.80;99.90
36552;DHT22;22559;54.176;12.102;2022-10-30T15:52:04;17.60;99.90
36552;DHT22;22559;54.176;12.102;2022-10-30T15:54:39;17.50;99.90
36552;DHT22;22559;54.176;12.102;2022-10-30T15:57:15;17.40;99.90
36552;DHT22;22559;54.176;12.102;2022-10-30T15:59:52;17.20;99.90
36552;DHT22;22559;54.176;12.102;2022-10-30T16:02:22;17.00;99.90
36552;DHT22;22559;54.176;12.102;2022-10-30T16:04:48;17.00;99.90
36552;DHT22;22559;54.176;12.102;2022-10-30T16:07:23;16.70;99.90
36552;DHT22;22559;54.176;12.102;2022-10-30T16:09:52;16.60;99.90
36552;DHT22;22559;54.176;12.102;2022-10-30T16:12:19;16.40;99.90
36552;DHT22;22559;54.176;12.102;2022-10-30T16:14:48;16.30;99.90
36552;DHT22;22559;54.176;12.102;2022-10-30T16:17:14;16.20;99.90
36552;DHT22;22559;54.176;12.102;2022-10-30T16:19:44;16.20;99.90
36552;DHT22;22559;54.176;12.102;2022-10-30T16:22:28;16.20;99.90
36552;DHT22;22559;54.176;12.102;2022-10-30T16:24:55;16.20;99.90
36552;DHT22;22559;54.176;12.102;2022-10-30T16:27:23;16.30;99.90
36552;DHT22;22559;54.176;12.102;2022-10-30T16:29:55;16.20;99.90
36552;DHT22;22559;54.176;12.102;2022-10-30T16:32:26;16.20;99.90
36552;DHT22;22559;54.176;12.102;2022-10-30T16:34:58;16.10;99.90
36552;DHT22;22559;54.176;12.102;2022-10-30T16:37:32;16.10;99.90
36552;DHT22;22559;54.176;12.102;2022-10-30T16:40:02;16.20;99.90
36552;DHT22;22559;54.176;12.102;2022-10-30T16:42:30;16.20;99.90
36552;DHT22;22559;54.176;12.102;2022-10-30T16:47:37;16.00;99.90
36552;DHT22;22559;54.176;12.102;2022-10-30T16:50:05;15.90;99.90
36552;DHT22;22559;54.176;12.102;2022-10-30T16:52:34;15.90;99.90
36552;DHT22;22559;54.176;12.102;2022-10-30T16:55:08;15.90;99.90
36552;DHT22;22559;54.176;12.102;2022-10-30T16:57:41;15.80;99.90
36552;DHT22;22559;54.176;12.102;2022-10-30T17:00:21;15.70;99.90
36552;DHT22;22559;54.176;12.102;2022-10-30T17:02:48;15.60;99.90
36552;DHT22;22559;54.176;12.102;2022-10-30T17:05:31;15.50;99.90
36552;DHT22;22559;54.176;12.102;2022-10-30T17:08:06;15.40;99.90
36552;DHT22;22559;54.176;12.102;2022-10-30T17:11:04;15.30;99.90
36552;DHT22;22559;54.176;12.102;2022-10-30T17:13:38;15.20;99.90
36552;DHT22;22559;54.176;12.102;2022-10-30T17:16:30;15.10;99.90
36552;DHT22;22559;54.176;12.102;2022-10-30T17:21:45;15.00;99.90
36552;DHT22;22559;54.176;12.102;2022-10-30T17:24:19;14.90;99.90
36552;DHT22;22559;54.176;12.102;2022-10-30T17:26:57;14.90;99.90
36552;DHT22;22559;54.176;12.102;2022-10-30T17:29:43;14.80;99.90
36552;DHT22;22559;54.176;12.102;2022-10-30T17:32:51;14.80;99.90
36552;DHT22;22559;54.176;12.102;2022-10-30T17:35:16;14.70;99.90
36552;DHT22;22559;54.176;12.102;2022-10-30T17:37:43;14.70;99.90
36552;DHT22;22559;54.176;12.102;2022-10-30T17:40:10;14.70;99.90
36552;DHT22;22559;54.176;12.102;2022-10-30T17:42:36;14.60;99.90
36552;DHT22;22559;54.176;12.102;2022-10-30T17:45:04;14.50;99.90